Time;durP1;ratioP1;P1;durP2;ratioP2;P2;SDS_P1;SDS_P2;PMS_P1;PMS_P2;Temp;Humidity;BMP_temperature;BMP_pressure;BME280_temperature;BME280_humidity;BME280_pressure;Samples;Min_cycle;Max_cycle;Signal;HPM_P1;HPM_P2
2023/07/17 00:02:15;;;;;;;5.32;3.97;;;16.60;99.90;;;;;;4998192;28;20576;-57
2023/07/17 00:04:41;;;;;;;4.93;3.50;;;16.60;99.90;;;;;;4995378;28;20117;-60
2023/07/17 00:07:06;;;;;;;5.55;3.72;;;16.70;99.90;;;;;;4996608;28;20390;-58
2023/07/17 00:09:32;;;;;;;4.00;3.55;;;16.70;99.90;;;;;;4995861;28;20030;-56
2023/07/17 00:11:57;;;;;;;6.05;4.07;;;16.70;99.90;;;;;;4995714;28;20506;-56
2023/07/17 00:14:23;;;;;;;5.80;3.53;;;16.80;99.90;;;;;;4998564;28;20034;-58
2023/07/17 00:16:49;;;;;;;11.55;3.40;;;16.80;99.90;;;;;;4993092;28;20023;-58
2023/07/17 00:19:14;;;;;;;4.15;3.65;;;16.80;99.90;;;;;;4999559;28;20030;-58
2023/07/17 00:21:40;;;;;;;4.85;3.72;;;16.80;99.90;;;;;;5000209;28;20030;-57
2023/07/17 00:24:05;;;;;;;4.07;3.67;;;16.80;99.90;;;;;;4997679;28;20045;-58
2023/07/17 00:26:31;;;;;;;4.13;3.72;;;16.80;99.90;;;;;;4998028;28;20027;-57
2023/07/17 00:29:23;;;;;;;4.40;3.40;;;16.80;99.90;;;;;;4996934;28;20096;-56
2023/07/17 00:31:50;;;;;;;6.13;4.45;;;16.80;99.90;;;;;;4996402;28;20457;-57
2023/07/17 00:34:17;;;;;;;5.38;3.85;;;16.80;99.90;;;;;;4995121;28;20083;-57
2023/07/17 00:36:43;;;;;;;4.93;3.38;;;16.80;99.90;;;;;;4994360;28;20555;-57
2023/07/17 00:39:10;;;;;;;4.68;4.13;;;16.70;99.90;;;;;;4997242;28;20132;-57
2023/07/17 00:41:35;;;;;;;10.88;4.18;;;16.60;99.90;;;;;;4996506;28;20037;-57
2023/07/17 00:44:01;;;;;;;4.65;4.03;;;16.60;99.90;;;;;;4998870;28;20022;-57
2023/07/17 00:46:27;;;;;;;4.82;3.72;;;16.50;99.90;;;;;;4997000;28;20057;-57
2023/07/17 00:48:53;;;;;;;5.07;3.85;;;16.50;99.90;;;;;;4996591;28;20030;-57
2023/07/17 00:51:18;;;;;;;4.40;3.67;;;16.40;99.90;;;;;;4997311;28;20161;-57
2023/07/17 00:53:44;;;;;;;4.90;4.20;;;16.40;99.90;;;;;;4996305;28;20070;-57
2023/07/17 00:56:10;;;;;;;5.65;4.30;;;16.40;99.90;;;;;;4997327;28;20026;-57
2023/07/17 00:58:36;;;;;;;5.90;3.97;;;16.40;99.90;;;;;;4998464;28;20073;-58
2023/07/17 01:01:03;;;;;;;4.55;3.83;;;16.40;99.90;;;;;;4998617;28;20026;-58
2023/07/17 01:03:29;;;;;;;4.15;3.38;;;16.40;99.90;;;;;;4998591;28;20124;-58
2023/07/17 01:05:57;;;;;;;6.80;3.78;;;16.40;99.90;;;;;;4996762;28;20018;-57
2023/07/17 01:08:22;;;;;;;5.22;4.13;;;16.40;99.90;;;;;;4996731;28;20033;-58
2023/07/17 01:10:49;;;;;;;4.00;3.58;;;16.40;99.90;;;;;;4994629;28;20470;-58
2023/07/17 01:13:16;;;;;;;5.38;3.45;;;16.40;99.90;;;;;;4995098;28;20041;-58
2023/07/17 01:15:42;;;;;;;4.32;3.90;;;16.30;99.90;;;;;;4993170;28;20027;-57
2023/07/17 01:18:08;;;;;;;4.78;3.83;;;16.30;99.90;;;;;;4995741;28;20387;-58
2023/07/17 01:20:34;;;;;;;5.50;4.93;;;16.40;99.90;;;;;;4999281;28;20018;-58
2023/07/17 01:23:02;;;;;;;4.43;3.72;;;16.40;99.90;;;;;;4992929;28;20045;-57
2023/07/17 01:25:29;;;;;;;4.97;4.05;;;16.40;99.90;;;;;;4996986;28;20036;-57
2023/07/17 01:27:55;;;;;;;6.60;4.75;;;16.40;99.90;;;;;;4996484;28;20035;-58
2023/07/17 01:30:20;;;;;;;4.68;4.28;;;16.40;99.90;;;;;;4996186;28;20040;-58
2023/07/17 01:32:46;;;;;;;5.07;4.38;;;16.40;99.90;;;;;;4999939;28;20030;-57
2023/07/17 01:35:12;;;;;;;4.43;3.90;;;16.30;99.90;;;;;;5001588;28;20057;-58
2023/07/17 01:37:37;;;;;;;4.55;3.83;;;16.30;99.90;;;;;;4997849;28;20061;-57
2023/07/17 01:40:08;;;;;;;5.07;3.92;;;16.40;99.90;;;;;;4998271;28;20041;-56
2023/07/17 01:42:33;;;;;;;5.80;4.05;;;16.40;99.90;;;;;;4997913;28;20022;-56
2023/07/17 01:45:00;;;;;;;5.68;4.47;;;16.40;99.90;;;;;;4999932;28;20038;-57
2023/07/17 01:47:25;;;;;;;4.70;4.30;;;16.40;99.90;;;;;;4999034;28;20018;-57
2023/07/17 01:49:51;;;;;;;5.10;4.65;;;16.30;99.90;;;;;;4998654;28;20033;-56
2023/07/17 01:52:17;;;;;;;5.05;4.13;;;16.30;99.90;;;;;;4998378;28;20549;-57
2023/07/17 01:54:43;;;;;;;5.70;4.47;;;16.30;99.90;;;;;;5000599;28;20519;-57
2023/07/17 01:57:09;;;;;;;5.25;4.75;;;16.30;99.90;;;;;;5002427;28;20117;-57
2023/07/17 01:59:34;;;;;;;5.85;4.18;;;16.30;99.90;;;;;;5001459;28;20394;-57
2023/07/17 02:02:00;;;;;;;6.13;4.38;;;16.30;99.90;;;;;;4999519;28;20026;-56
2023/07/17 02:04:26;;;;;;;5.00;3.72;;;16.30;99.90;;;;;;5000355;28;20073;-58
2023/07/17 02:06:52;;;;;;;4.70;3.75;;;16.30;99.90;;;;;;4997076;28;20026;-57
2023/07/17 02:09:17;;;;;;;4.13;3.58;;;16.30;99.90;;;;;;4999772;28;20480;-58
2023/07/17 02:11:43;;;;;;;5.95;3.40;;;16.30;99.90;;;;;;4999903;28;20933;-58
2023/07/17 02:14:08;;;;;;;6.80;3.88;;;16.30;99.90;;;;;;4998396;28;20113;-57
2023/07/17 02:16:34;;;;;;;7.10;3.90;;;16.30;99.90;;;;;;4999451;28;20394;-57
2023/07/17 02:19:00;;;;;;;4.95;3.72;;;16.30;99.90;;;;;;4997547;28;20465;-57
2023/07/17 02:21:25;;;;;;;5.78;4.13;;;16.30;99.90;;;;;;4998104;28;20044;-57
2023/07/17 02:23:51;;;;;;;10.57;4.78;;;16.30;99.90;;;;;;4999530;28;20130;-57
2023/07/17 02:26:17;;;;;;;4.78;4.25;;;16.30;99.90;;;;;;4999778;28;20485;-58
2023/07/17 02:28:43;;;;;;;5.45;4.20;;;16.20;99.90;;;;;;5000497;28;20038;-57
2023/07/17 02:31:08;;;;;;;6.20;4.28;;;16.20;99.90;;;;;;5000949;28;20042;-57
2023/07/17 02:33:34;;;;;;;5.75;3.90;;;16.10;99.90;;;;;;4998065;28;20109;-55
2023/07/17 02:36:03;;;;;;;4.20;3.90;;;16.10;99.90;;;;;;4996436;28;20356;-57
2023/07/17 02:38:28;;;;;;;5.63;4.63;;;16.00;99.90;;;;;;4999008;28;20042;-56
2023/07/17 02:40:54;;;;;;;6.05;4.03;;;16.00;99.90;;;;;;4997755;28;20061;-58
2023/07/17 02:43:19;;;;;;;4.97;4.35;;;15.90;99.90;;;;;;4999701;28;20089;-57
2023/07/17 02:45:45;;;;;;;4.28;3.80;;;15.90;99.90;;;;;;4998196;28;20037;-57
2023/07/17 02:48:11;;;;;;;4.88;4.15;;;15.80;99.90;;;;;;4998025;28;20042;-58
2023/07/17 02:50:37;;;;;;;6.13;4.68;;;15.80;99.90;;;;;;4996863;28;20026;-57
2023/07/17 02:53:02;;;;;;;5.43;4.20;;;15.80;99.90;;;;;;5000602;28;20022;-57
2023/07/17 02:55:28;;;;;;;4.88;4.15;;;15.70;99.90;;;;;;5000821;28;20487;-57
2023/07/17 02:57:54;;;;;;;5.63;4.45;;;15.70;99.90;;;;;;4998393;28;20054;-56
2023/07/17 03:00:19;;;;;;;7.22;4.18;;;15.80;99.90;;;;;;5002307;28;20037;-58
2023/07/17 03:02:46;;;;;;;6.90;3.92;;;15.80;99.90;;;;;;5000628;28;20072;-57
2023/07/17 03:05:12;;;;;;;5.28;4.45;;;15.80;99.90;;;;;;4997867;28;20406;-56
2023/07/17 03:07:43;;;;;;;5.28;4.45;;;15.90;99.90;;;;;;4998822;28;20041;-57
2023/07/17 03:10:09;;;;;;;5.57;4.22;;;15.90;99.90;;;;;;4996760;28;20077;-56
2023/07/17 03:12:36;;;;;;;6.25;4.45;;;15.90;99.90;;;;;;4998804;28;20113;-57
2023/07/17 03:15:04;;;;;;;5.35;3.90;;;16.00;99.90;;;;;;4997289;28;20475;-57
2023/07/17 03:17:30;;;;;;;4.53;4.13;;;16.00;99.90;;;;;;5000314;28;20034;-56
2023/07/17 03:19:55;;;;;;;7.72;4.78;;;16.00;99.90;;;;;;4997197;28;20029;-54
2023/07/17 03:22:21;;;;;;;7.32;4.47;;;16.00;99.90;;;;;;4999336;28;20033;-58
2023/07/17 03:24:46;;;;;;;6.30;4.65;;;16.10;99.90;;;;;;4997380;28;20035;-58
2023/07/17 03:27:12;;;;;;;7.63;4.30;;;16.10;99.90;;;;;;4998945;28;20026;-58
2023/07/17 03:29:38;;;;;;;5.90;4.20;;;16.10;99.90;;;;;;4997330;28;20481;-58
2023/07/17 03:32:04;;;;;;;5.07;4.55;;;16.10;99.90;;;;;;4997576;28;20064;-58
2023/07/17 03:34:29;;;;;;;6.68;3.88;;;16.10;99.90;;;;;;4997562;28;20042;-57
2023/07/17 03:36:55;;;;;;;5.72;4.68;;;16.20;99.90;;;;;;4996660;28;20022;-58
2023/07/17 03:39:21;;;;;;;4.60;4.20;;;16.20;99.90;;;;;;4998277;28;20030;-57
2023/07/17 03:41:46;;;;;;;4.70;3.58;;;16.20;99.90;;;;;;4999700;28;20033;-58
2023/07/17 03:44:12;;;;;;;5.78;4.78;;;16.20;99.90;;;;;;4996285;28;20022;-57
2023/07/17 03:46:38;;;;;;;6.55;3.88;;;16.20;99.90;;;;;;4999475;28;20030;-58
2023/07/17 03:49:04;;;;;;;5.90;3.90;;;16.20;99.90;;;;;;4996731;28;20030;-55
2023/07/17 03:51:30;;;;;;;5.55;4.65;;;16.20;99.90;;;;;;4998250;28;20103;-58
2023/07/17 03:53:56;;;;;;;8.55;4.65;;;16.30;99.90;;;;;;4994863;28;20499;-58
2023/07/17 03:56:21;;;;;;;4.30;3.55;;;16.30;99.90;;;;;;4998644;28;20105;-57
2023/07/17 03:58:48;;;;;;;4.45;4.05;;;16.30;99.90;;;;;;4996064;28;20025;-58
2023/07/17 04:01:13;;;;;;;6.90;4.47;;;16.30;99.90;;;;;;4996606;28;20030;-56
2023/07/17 04:03:39;;;;;;;4.65;4.07;;;16.30;99.90;;;;;;4999217;28;20037;-57
2023/07/17 04:06:05;;;;;;;5.43;3.97;;;16.30;99.90;;;;;;4996421;28;20031;-56
2023/07/17 04:08:31;;;;;;;5.57;4.10;;;16.30;99.90;;;;;;4991454;28;20026;-57
2023/07/17 04:10:57;;;;;;;6.32;4.25;;;16.40;99.90;;;;;;4996975;28;20080;-57
2023/07/17 04:13:22;;;;;;;7.15;4.10;;;16.40;99.90;;;;;;4995592;28;20414;-57
2023/07/17 04:15:48;;;;;;;6.05;4.28;;;16.40;99.90;;;;;;4997841;28;20026;-57
2023/07/17 04:18:14;;;;;;;5.10;4.60;;;16.40;99.90;;;;;;4997680;28;20738;-57
2023/07/17 04:20:41;;;;;;;4.95;4.50;;;16.40;99.90;;;;;;4998042;28;20037;-57
2023/07/17 04:23:06;;;;;;;4.88;4.20;;;16.50;99.90;;;;;;4998354;28;20076;-58
2023/07/17 04:25:32;;;;;;;4.22;3.83;;;16.50;99.90;;;;;;4993235;28;20039;-57
2023/07/17 04:27:58;;;;;;;4.80;4.35;;;16.60;99.90;;;;;;5001297;28;20041;-58
2023/07/17 04:30:23;;;;;;;5.75;3.88;;;16.60;99.90;;;;;;4992423;28;20053;-59
2023/07/17 04:32:53;;;;;;;8.98;4.43;;;16.60;99.90;;;;;;4994897;28;20041;-58
2023/07/17 04:35:19;;;;;;;5.00;3.90;;;16.60;99.90;;;;;;4996674;28;20113;-58
2023/07/17 04:37:45;;;;;;;4.97;4.47;;;16.70;99.90;;;;;;4997943;28;20113;-55
2023/07/17 04:40:11;;;;;;;4.78;4.38;;;16.80;99.90;;;;;;4996043;28;20026;-55
2023/07/17 04:42:38;;;;;;;3.83;3.38;;;16.80;99.90;;;;;;4995877;28;20029;-56
2023/07/17 04:45:05;;;;;;;5.05;3.65;;;16.80;99.90;;;;;;4995503;28;20034;-58
2023/07/17 04:47:31;;;;;;;6.25;4.20;;;16.90;99.90;;;;;;4998109;28;20045;-56
2023/07/17 04:49:57;;;;;;;5.90;4.68;;;17.00;99.90;;;;;;4996770;28;20030;-56
2023/07/17 04:52:22;;;;;;;6.43;4.28;;;17.00;99.90;;;;;;4995628;28;20030;-55
2023/07/17 04:54:48;;;;;;;7.90;4.40;;;17.10;99.90;;;;;;4995277;28;20034;-58
2023/07/17 04:57:14;;;;;;;4.70;4.20;;;17.10;99.90;;;;;;4995604;28;20064;-56
2023/07/17 04:59:39;;;;;;;4.93;4.22;;;17.20;99.90;;;;;;4997499;28;20034;-56
2023/07/17 05:02:05;;;;;;;4.65;4.00;;;17.20;99.90;;;;;;4995431;28;20084;-57
2023/07/17 05:04:30;;;;;;;5.80;4.40;;;17.30;99.90;;;;;;4996924;28;20042;-57
2023/07/17 05:06:57;;;;;;;5.15;4.05;;;17.50;99.90;;;;;;4996102;28;20014;-57
2023/07/17 05:09:23;;;;;;;5.32;4.03;;;17.70;99.90;;;;;;4995293;28;20029;-57
2023/07/17 05:11:49;;;;;;;5.70;3.88;;;17.80;99.90;;;;;;4998407;28;20030;-56
2023/07/17 05:14:15;;;;;;;5.72;3.95;;;17.90;99.90;;;;;;4994191;28;20101;-58
2023/07/17 05:16:41;;;;;;;5.10;4.38;;;17.90;99.90;;;;;;4997452;28;20451;-58
2023/07/17 05:19:06;;;;;;;4.32;3.92;;;17.80;99.90;;;;;;4995873;28;20042;-59
2023/07/17 05:21:33;;;;;;;4.70;4.30;;;17.80;99.90;;;;;;4994756;28;20027;-58
2023/07/17 05:23:58;;;;;;;5.90;4.50;;;17.60;99.90;;;;;;4996088;28;20022;-57
2023/07/17 05:26:24;;;;;;;9.90;4.68;;;17.50;99.90;;;;;;4993287;28;20418;-57
2023/07/17 05:28:51;;;;;;;5.63;4.63;;;17.50;99.90;;;;;;4999113;28;20013;-58
2023/07/17 05:31:16;;;;;;;8.15;4.95;;;17.50;99.90;;;;;;4994438;28;20077;-59
2023/07/17 05:33:42;;;;;;;5.13;4.68;;;17.40;99.90;;;;;;4996495;28;20034;-57
2023/07/17 05:36:08;;;;;;;5.50;4.47;;;17.40;99.90;;;;;;4996115;28;20033;-57
2023/07/17 05:38:33;;;;;;;5.22;4.50;;;17.40;99.90;;;;;;4999384;28;20036;-57
2023/07/17 05:41:02;;;;;;;7.88;4.35;;;17.40;99.90;;;;;;4996473;28;20466;-58
2023/07/17 05:43:30;;;;;;;6.38;4.82;;;17.50;99.90;;;;;;4995359;28;20026;-57
2023/07/17 05:45:56;;;;;;;5.90;4.25;;;17.50;99.90;;;;;;4997253;28;20050;-57
2023/07/17 05:48:22;;;;;;;6.13;4.35;;;17.60;99.90;;;;;;4997247;28;20030;-56
2023/07/17 05:50:48;;;;;;;6.53;4.70;;;17.70;99.90;;;;;;4998277;28;20029;-57
2023/07/17 05:53:13;;;;;;;6.40;4.43;;;17.70;99.90;;;;;;4995343;28;20021;-59
2023/07/17 05:55:39;;;;;;;6.80;4.53;;;17.80;99.90;;;;;;4995725;28;20030;-57
2023/07/17 05:58:04;;;;;;;5.57;3.70;;;17.90;99.90;;;;;;4996745;28;20037;-57
2023/07/17 06:00:30;;;;;;;7.25;4.22;;;18.00;99.90;;;;;;4996857;28;20032;-58
2023/07/17 06:02:56;;;;;;;6.63;4.32;;;18.00;99.90;;;;;;4997802;28;20072;-57
2023/07/17 06:05:21;;;;;;;5.03;4.53;;;18.10;99.90;;;;;;4996925;28;20022;-58
2023/07/17 06:07:47;;;;;;;6.63;4.82;;;18.20;99.90;;;;;;4995465;28;20027;-58
2023/07/17 06:10:12;;;;;;;9.70;5.05;;;18.30;99.90;;;;;;4994583;28;20073;-57
2023/07/17 06:12:39;;;;;;;5.25;4.07;;;18.40;99.90;;;;;;4993291;28;20058;-57
2023/07/17 06:15:06;;;;;;;9.10;4.85;;;18.50;99.90;;;;;;4996184;28;20026;-58
2023/07/17 06:17:32;;;;;;;6.35;4.28;;;18.50;99.90;;;;;;4994616;28;20014;-58
2023/07/17 06:19:57;;;;;;;7.22;4.43;;;18.60;99.90;;;;;;4997763;28;20115;-58
2023/07/17 06:22:23;;;;;;;5.93;4.47;;;18.70;99.90;;;;;;4997969;28;20050;-61
2023/07/17 06:24:49;;;;;;;5.72;4.20;;;18.80;99.90;;;;;;4998234;28;20158;-60
2023/07/17 06:27:15;;;;;;;5.28;4.78;;;18.90;99.90;;;;;;4996058;28;20026;-58
2023/07/17 06:29:41;;;;;;;6.72;4.97;;;18.90;99.90;;;;;;4994671;28;20030;-57
2023/07/17 06:32:07;;;;;;;4.50;4.10;;;19.00;99.90;;;;;;4998865;28;20042;-58
2023/07/17 06:34:33;;;;;;;4.90;4.40;;;19.10;99.90;;;;;;4999118;28;20030;-58
2023/07/17 06:37:00;;;;;;;7.30;4.63;;;19.20;99.90;;;;;;4995066;28;20162;-57
2023/07/17 06:39:26;;;;;;;7.57;4.20;;;19.30;99.90;;;;;;4996973;28;20023;-58
2023/07/17 06:41:52;;;;;;;5.55;3.33;;;19.40;99.90;;;;;;4997854;28;20059;-59
2023/07/17 06:44:18;;;;;;;4.70;3.70;;;19.50;99.90;;;;;;4998674;28;20170;-59
2023/07/17 06:46:43;;;;;;;5.03;3.90;;;19.60;99.90;;;;;;4999552;28;20034;-57
2023/07/17 06:49:09;;;;;;;6.38;4.07;;;19.70;99.90;;;;;;4997760;28;20401;-59
2023/07/17 06:51:35;;;;;;;4.50;3.30;;;19.80;99.90;;;;;;4995594;28;20161;-58
2023/07/17 06:54:00;;;;;;;5.35;3.85;;;19.90;99.90;;;;;;4997463;28;20034;-59
2023/07/17 06:56:26;;;;;;;7.93;4.15;;;20.00;99.90;;;;;;4994200;28;20026;-59
2023/07/17 06:58:51;;;;;;;4.22;3.63;;;20.10;99.90;;;;;;5002084;28;20509;-58
2023/07/17 07:01:17;;;;;;;4.38;3.40;;;20.20;99.90;;;;;;4996483;28;20027;-58
2023/07/17 07:03:43;;;;;;;3.40;2.90;;;20.40;99.90;;;;;;4997928;28;20048;-59
2023/07/17 07:06:09;;;;;;;4.20;3.20;;;20.60;99.90;;;;;;4998351;28;20532;-60
2023/07/17 07:08:34;;;;;;;5.28;3.50;;;20.70;99.90;;;;;;4999188;28;20022;-58
2023/07/17 07:11:02;;;;;;;5.43;3.28;;;20.80;99.90;;;;;;4999433;28;20405;-58
2023/07/17 07:13:28;;;;;;;4.75;3.00;;;20.90;99.90;;;;;;4999005;28;20026;-57
2023/07/17 07:15:54;;;;;;;4.60;2.90;;;21.00;99.90;;;;;;4998543;28;20045;-59
2023/07/17 07:18:20;;;;;;;5.30;3.38;;;21.10;99.90;;;;;;4996494;28;20058;-58
2023/07/17 07:20:47;;;;;;;4.07;2.78;;;21.20;99.90;;;;;;4997135;28;20512;-57
2023/07/17 07:23:13;;;;;;;5.93;2.85;;;21.40;99.90;;;;;;4998266;28;20022;-59
2023/07/17 07:25:40;;;;;;;3.92;2.53;;;21.50;99.90;;;;;;4999257;28;20081;-59
2023/07/17 07:28:05;;;;;;;7.53;2.67;;;21.60;99.90;;;;;;4995567;28;20046;-59
2023/07/17 07:30:31;;;;;;;8.35;2.78;;;21.80;99.90;;;;;;4994373;28;20549;-59
2023/07/17 07:32:57;;;;;;;8.32;3.15;;;21.90;99.90;;;;;;4994403;28;20033;-59
2023/07/17 07:35:23;;;;;;;5.97;2.85;;;21.90;99.90;;;;;;4997095;28;20032;-57
2023/07/17 07:37:48;;;;;;;25.00;3.28;;;22.00;99.90;;;;;;5000254;28;20029;-58
2023/07/17 07:40:15;;;;;;;6.20;2.45;;;22.20;99.90;;;;;;4996797;28;20033;-58
2023/07/17 07:42:44;;;;;;;4.90;3.05;;;22.30;97.50;;;;;;4997186;28;20103;-58
2023/07/17 07:45:12;;;;;;;6.57;2.85;;;22.50;97.60;;;;;;4995263;28;20886;-58
2023/07/17 07:47:41;;;;;;;7.28;3.17;;;22.60;96.70;;;;;;4999064;28;20061;-58
2023/07/17 07:50:08;;;;;;;6.57;3.25;;;22.80;94.80;;;;;;4998170;28;20040;-58
2023/07/17 07:52:33;;;;;;;6.68;2.88;;;22.80;93.60;;;;;;4997509;28;20084;-59
2023/07/17 07:54:59;;;;;;;4.93;3.38;;;22.80;93.70;;;;;;4998153;28;20034;-58
2023/07/17 07:57:25;;;;;;;5.53;3.10;;;22.80;92.50;;;;;;4997603;28;20110;-58
2023/07/17 07:59:51;;;;;;;7.72;2.60;;;22.80;92.10;;;;;;4997917;28;20030;-58
2023/07/17 08:02:17;;;;;;;6.13;3.67;;;22.80;92.20;;;;;;4997686;28;20566;-58
2023/07/17 08:04:46;;;;;;;6.63;3.63;;;22.90;90.70;;;;;;4991588;28;20068;-59
2023/07/17 08:07:11;;;;;;;4.07;3.22;;;23.00;91.20;;;;;;4996619;28;20537;-56
2023/07/17 08:09:37;;;;;;;5.45;3.92;;;23.10;90.00;;;;;;5004968;28;20117;-56
2023/07/17 08:12:04;;;;;;;7.70;3.67;;;23.10;85.80;;;;;;4996144;28;20108;-57
2023/07/17 08:14:29;;;;;;;6.00;4.00;;;23.20;84.80;;;;;;5000309;28;20038;-58
2023/07/17 08:16:55;;;;;;;8.02;3.88;;;23.20;82.30;;;;;;4997301;28;20022;-56
2023/07/17 08:19:21;;;;;;;6.57;3.75;;;23.30;85.80;;;;;;4996506;28;20050;-59
2023/07/17 08:21:47;;;;;;;6.93;4.30;;;23.50;86.10;;;;;;4996140;28;20089;-57
2023/07/17 08:24:12;;;;;;;5.38;3.60;;;23.70;85.10;;;;;;4995837;28;20066;-57
2023/07/17 08:26:39;;;;;;;5.68;4.00;;;23.80;83.30;;;;;;4993925;28;20040;-57
2023/07/17 08:29:08;;;;;;;4.10;3.67;;;23.70;76.30;;;;;;4997156;28;20034;-58
2023/07/17 08:31:34;;;;;;;6.60;4.10;;;23.60;75.50;;;;;;4995333;28;20080;-58
2023/07/17 08:34:01;;;;;;;6.40;3.53;;;23.50;78.90;;;;;;4999800;28;20038;-57
2023/07/17 08:36:28;;;;;;;6.05;3.58;;;23.50;78.50;;;;;;4997527;28;20108;-59
2023/07/17 08:38:54;;;;;;;5.65;4.05;;;23.60;78.70;;;;;;4994250;28;20113;-59
2023/07/17 08:41:20;;;;;;;5.68;4.07;;;23.80;74.40;;;;;;4997025;28;20444;-59
2023/07/17 08:43:50;;;;;;;6.97;3.97;;;23.90;74.40;;;;;;4995518;28;20458;-58
2023/07/17 08:46:16;;;;;;;8.02;3.22;;;23.80;72.70;;;;;;4995351;28;20054;-58
2023/07/17 08:48:45;;;;;;;4.93;4.03;;;23.80;73.70;;;;;;4997699;28;20088;-59
2023/07/17 08:51:12;;;;;;;6.38;4.00;;;23.90;74.50;;;;;;4995777;28;20054;-58
2023/07/17 08:53:43;;;;;;;4.85;3.97;;;23.90;72.80;;;;;;4995889;28;20022;-59
2023/07/17 08:56:11;;;;;;;6.65;3.55;;;24.00;73.30;;;;;;4997428;28;20034;-56
2023/07/17 08:58:37;;;;;;;6.20;3.63;;;24.10;70.10;;;;;;4996958;28;20495;-57
2023/07/17 09:01:04;;;;;;;6.53;3.58;;;24.20;72.10;;;;;;4995129;28;20038;-57
2023/07/17 09:03:32;;;;;;;4.95;3.70;;;24.30;69.70;;;;;;4997103;28;20053;-58
2023/07/17 09:06:01;;;;;;;5.28;3.50;;;24.40;68.90;;;;;;4995183;28;20056;-57
2023/07/17 09:08:26;;;;;;;5.55;3.38;;;24.60;70.20;;;;;;5002149;28;20044;-57
2023/07/17 09:11:06;;;;;;;3.58;3.15;;;24.80;66.80;;;;;;4995376;28;20471;-59
2023/07/17 09:13:39;;;;;;;5.57;3.55;;;24.80;67.20;;;;;;4995869;28;20056;-57
2023/07/17 09:16:18;;;;;;;5.95;4.45;;;24.70;66.20;;;;;;4994649;28;20030;-57
2023/07/17 09:18:48;;;;;;;5.72;3.95;;;24.60;65.70;;;;;;4995376;28;20026;-59
2023/07/17 09:21:15;;;;;;;5.97;3.20;;;24.50;63.60;;;;;;4994475;28;20034;-58
2023/07/17 09:23:45;;;;;;;6.72;3.50;;;24.50;65.70;;;;;;4994214;28;20077;-58
2023/07/17 09:26:16;;;;;;;5.55;4.00;;;24.60;66.80;;;;;;4994728;28;20037;-57
2023/07/17 09:28:49;;;;;;;;;;;24.80;68.10;;;;;;4993412;28;20027;-58
2023/07/17 09:31:21;;;;;;;6.13;3.70;;;25.00;66.40;;;;;;4991490;28;19910;-59
2023/07/17 09:33:47;;;;;;;6.30;3.53;;;25.30;64.80;;;;;;4994955;28;20022;-59
2023/07/17 09:36:13;;;;;;;7.20;3.58;;;25.60;65.00;;;;;;4993477;28;20101;-57
2023/07/17 09:38:38;;;;;;;5.13;3.58;;;26.00;64.30;;;;;;4996982;28;20018;-58
2023/07/17 09:41:25;;;;;;;5.68;3.38;;;26.10;61.30;;;;;;4995885;28;20521;-58
2023/07/17 09:43:57;;;;;;;4.63;3.65;;;26.10;61.10;;;;;;4995989;28;20036;-58
2023/07/17 09:46:25;;;;;;;5.97;4.00;;;25.90;60.40;;;;;;4993394;28;20068;-58
2023/07/17 09:48:53;;;;;;;5.75;3.63;;;25.70;60.80;;;;;;4995285;28;20030;-58
2023/07/17 09:51:21;;;;;;;5.60;3.60;;;25.70;63.00;;;;;;4993310;28;20112;-57
2023/07/17 09:53:48;;;;;;;5.13;3.75;;;25.70;61.00;;;;;;4993636;28;20027;-56
2023/07/17 09:56:19;;;;;;;5.28;3.67;;;25.90;61.10;;;;;;5001331;28;20100;-58
2023/07/17 09:58:50;;;;;;;5.25;3.95;;;26.20;62.00;;;;;;4998214;28;20033;-57
2023/07/17 10:01:18;;;;;;;7.10;3.42;;;26.30;60.00;;;;;;5001655;28;20032;-58
2023/07/17 10:03:48;;;;;;;5.88;3.67;;;26.40;58.40;;;;;;5001406;28;20026;-57
2023/07/17 10:06:16;;;;;;;6.25;3.53;;;26.50;59.60;;;;;;4996585;28;20070;-59
2023/07/17 10:08:49;;;;;;;6.30;4.05;;;26.70;60.10;;;;;;4996969;28;20035;-58
2023/07/17 10:11:18;;;;;;;4.30;3.13;;;26.80;57.10;;;;;;4997840;28;20088;-58
2023/07/17 10:13:45;;;;;;;5.75;4.00;;;26.80;59.00;;;;;;4998203;28;20445;-58
2023/07/17 10:16:16;;;;;;;8.30;4.13;;;26.90;57.00;;;;;;5000061;28;20133;-59
2023/07/17 10:18:54;;;;;;;;;;;27.00;56.80;;;;;;4998997;28;20681;-60
2023/07/17 10:21:20;;;;;;;6.65;3.45;;;27.20;57.30;;;;;;4996508;28;19909;-59
2023/07/17 10:23:47;;;;;;;4.57;3.65;;;27.10;55.60;;;;;;4995580;28;20034;-57
2023/07/17 10:26:19;;;;;;;7.30;4.15;;;27.00;56.20;;;;;;4999220;28;20014;-58
2023/07/17 10:28:50;;;;;;;5.35;3.97;;;26.80;55.80;;;;;;4997031;28;20576;-59
2023/07/17 10:31:18;;;;;;;5.28;3.72;;;26.60;57.60;;;;;;4995821;28;20019;-57
2023/07/17 10:33:48;;;;;;;5.60;4.38;;;26.50;57.00;;;;;;4999252;28;20034;-57
2023/07/17 10:36:14;;;;;;;7.47;3.85;;;26.50;57.30;;;;;;4998773;28;20022;-57
2023/07/17 10:38:42;;;;;;;6.35;3.58;;;26.40;57.60;;;;;;5000278;28;20453;-59
2023/07/17 10:41:25;;;;;;;4.00;3.55;;;26.40;58.80;;;;;;4999012;28;20300;-58
2023/07/17 10:43:57;;;;;;;4.53;3.55;;;26.30;58.50;;;;;;4999855;28;20034;-58
2023/07/17 10:46:28;;;;;;;5.47;3.67;;;26.10;57.70;;;;;;5001730;28;20038;-58
2023/07/17 10:48:55;;;;;;;6.03;4.03;;;25.90;57.40;;;;;;4997818;28;20723;-56
2023/07/17 10:51:28;;;;;;;7.32;3.55;;;25.70;57.90;;;;;;4997706;28;20034;-58
2023/07/17 10:53:55;;;;;;;6.13;4.10;;;25.60;57.70;;;;;;4999628;28;20030;-57
2023/07/17 10:56:21;;;;;;;6.03;3.90;;;25.40;57.80;;;;;;4997709;28;20030;-58
2023/07/17 10:58:50;;;;;;;4.30;3.80;;;25.40;59.80;;;;;;4999707;28;20029;-57
2023/07/17 11:01:16;;;;;;;6.80;4.07;;;25.70;60.30;;;;;;4998119;28;20173;-57
2023/07/17 11:03:47;;;;;;;5.07;4.10;;;26.00;60.00;;;;;;4997889;28;20456;-56
2023/07/17 11:06:16;;;;;;;6.00;3.40;;;26.30;56.30;;;;;;4999548;28;20141;-57
2023/07/17 11:08:43;;;;;;;4.43;3.67;;;26.60;55.70;;;;;;4997765;28;20022;-58
2023/07/17 11:11:09;;;;;;;7.13;4.18;;;26.80;55.80;;;;;;4998207;28;20033;-58
2023/07/17 11:13:35;;;;;;;5.85;4.07;;;27.00;57.10;;;;;;4999479;28;20563;-58
2023/07/17 11:16:08;;;;;;;7.30;3.88;;;27.10;53.20;;;;;;4997597;28;20022;-59
2023/07/17 11:18:45;;;;;;;4.63;3.55;;;27.10;55.00;;;;;;4999787;28;20038;-57
2023/07/17 11:21:11;;;;;;;5.88;3.72;;;27.20;53.80;;;;;;4997517;28;20536;-58
2023/07/17 11:23:56;;;;;;;4.18;3.30;;;27.30;54.60;;;;;;4999717;28;20046;-58
2023/07/17 11:26:31;;;;;;;5.07;3.75;;;27.30;53.30;;;;;;4999433;28;20022;-59
2023/07/17 11:28:59;;;;;;;3.67;3.03;;;27.20;53.40;;;;;;4999740;28;20002;-58
2023/07/17 11:31:27;;;;;;;7.35;3.67;;;27.10;54.40;;;;;;4999493;28;20034;-57
2023/07/17 11:33:58;;;;;;;3.80;3.45;;;27.20;54.00;;;;;;4997104;28;20034;-57
2023/07/17 11:36:25;;;;;;;5.63;3.53;;;27.30;53.10;;;;;;4995308;28;20027;-58
2023/07/17 11:38:51;;;;;;;5.05;3.38;;;27.40;53.50;;;;;;4999296;28;20467;-59
2023/07/17 11:41:16;;;;;;;4.45;2.78;;;27.60;53.10;;;;;;4997358;28;20041;-58
2023/07/17 11:43:42;;;;;;;4.50;2.92;;;27.60;51.00;;;;;;4997443;28;20027;-58
2023/07/17 11:46:09;;;;;;;5.75;3.35;;;27.30;51.70;;;;;;4997784;28;20027;-58
2023/07/17 11:48:43;;;;;;;5.22;3.28;;;27.00;52.00;;;;;;4996960;28;20018;-57
2023/07/17 11:51:09;;;;;;;4.93;2.95;;;26.90;53.80;;;;;;4995718;28;20030;-60
2023/07/17 11:53:37;;;;;;;4.95;3.05;;;27.10;53.60;;;;;;4995598;28;20018;-59
2023/07/17 11:56:03;;;;;;;4.22;3.33;;;27.30;53.40;;;;;;4993480;28;20101;-59
2023/07/17 11:58:31;;;;;;;5.65;3.40;;;27.20;52.10;;;;;;4994935;28;20431;-59
2023/07/17 12:00:57;;;;;;;3.78;2.83;;;27.10;51.40;;;;;;4992733;28;20037;-58
2023/07/17 12:03:23;;;;;;;5.75;3.17;;;27.10;53.50;;;;;;4998473;28;20486;-58
2023/07/17 12:05:49;;;;;;;3.58;3.28;;;27.00;51.90;;;;;;4995511;28;20034;-59
2023/07/17 12:08:15;;;;;;;5.43;3.67;;;26.80;52.80;;;;;;4998783;28;20068;-58
2023/07/17 12:10:42;;;;;;;3.85;3.38;;;26.50;55.00;;;;;;4998394;28;20153;-58
2023/07/17 12:13:08;;;;;;;3.88;2.90;;;26.40;55.20;;;;;;5000719;28;20041;-57
2023/07/17 12:15:34;;;;;;;4.40;3.20;;;26.50;54.60;;;;;;4998381;28;20026;-57
2023/07/17 12:18:00;;;;;;;6.07;3.83;;;26.60;55.10;;;;;;4995356;28;20030;-57
2023/07/17 12:20:27;;;;;;;5.13;3.03;;;26.70;54.20;;;;;;4996205;28;20137;-57
2023/07/17 12:22:54;;;;;;;4.53;3.20;;;26.70;52.80;;;;;;4998961;28;20025;-58
2023/07/17 12:25:20;;;;;;;6.90;3.30;;;26.70;52.60;;;;;;4998759;28;20037;-57
2023/07/17 12:27:47;;;;;;;4.22;2.75;;;26.80;51.90;;;;;;4995352;28;20026;-57
2023/07/17 12:30:14;;;;;;;5.07;3.15;;;26.90;52.80;;;;;;4995962;28;20034;-55
2023/07/17 12:32:41;;;;;;;5.55;3.70;;;26.90;51.90;;;;;;4999237;28;20030;-58
2023/07/17 12:35:07;;;;;;;5.28;3.40;;;27.00;53.60;;;;;;4998905;28;20021;-57
2023/07/17 12:37:34;;;;;;;3.25;2.92;;;27.30;51.70;;;;;;4996626;28;20030;-58
2023/07/17 12:40:00;;;;;;;7.03;3.58;;;27.40;52.00;;;;;;4996031;28;20124;-56
2023/07/17 12:42:26;;;;;;;5.10;3.22;;;27.60;50.60;;;;;;4997720;28;20033;-57
2023/07/17 12:44:52;;;;;;;4.07;2.95;;;27.70;50.20;;;;;;4996998;28;20061;-59
2023/07/17 12:47:18;;;;;;;4.47;2.88;;;27.80;50.30;;;;;;4997741;28;20517;-58